Cala Paguro — D5KY9 — position and weather

sailwx.info

Track history (hours):
 
Tides and Currents Weather Stations Pressure Air Temp Water Temp Dewpoint Dewpoint Depression Visibility Wind Speed Wind Dir Waves Ship Positions

Cala Paguro

Last reported at 2018-Feb-15 23:17 UTC. Time now 2018-Feb-21 07:43 UTC.
Position N 35°54' W 005°29'.

Length 172 m; draft 6.5 m.

Type: Cargo ship. MMSI: 636017440.

Date/timePositionNaut miles runAvg speedWind from/ knotsBaromVisibWave heightAir tempDewpointWater temp
2018-Feb-15 23:17N 35°54' W 005°29'0 0.0
2018-Feb-15 22:59N 35°54' W 005°29'0 0.0
2018-Feb-15 22:30N 35°54' W 005°29'11 0.6
2018-Feb-15 05:03N 35°53' W 005°43'115.9
2018-Feb-15 04:59N 35°53' W 005°44'  
2018-Feb-06 17:36N 09°54' W 016°12'215.3
2018-Feb-06 17:28N 09°53' W 016°10'715.3
2018-Feb-06 17:00N 09°47' W 016°06'1015.1
2018-Feb-06 16:20N 09°39' W 016°00'514.9
2018-Feb-06 16:00N 09°35' W 015°57'4215.4
2018-Feb-06 13:15N 09°02' W 015°30'1215.6
2018-Feb-06 12:29N 08°54' W 015°21'915.4
2018-Feb-06 11:54N 08°48' W 015°15'1215.5
2018-Feb-06 11:07N 08°40' W 015°05'215.5
2018-Feb-06 11:00N 08°39' W 015°04'815.5
2018-Feb-06 10:30N 08°34' W 014°58'2315.8
2018-Feb-06 09:03N 08°19' W 014°40'115.4
2018-Feb-06 09:00N 08°18' W 014°40'815.9
2018-Feb-06 08:30N 08°13' W 014°34'2415.7
2018-Feb-06 07:00N 07°58' W 014°15'2015.7
2018-Feb-06 05:43N 07°47' W 013°59'415.3
2018-Feb-06 05:29N 07°45' W 013°55'715.7
2018-Feb-06 05:00N 07°41' W 013°49'815.7
2018-Feb-06 04:30N 07°38' W 013°42'815.5
2018-Feb-06 04:00N 07°34' W 013°35'  
Track history (hours):
 
Tides and Currents Weather Stations Pressure Air Temp Water Temp Dewpoint Dewpoint Depression Visibility Wind Speed Wind Dir Waves Ship Positions

Cala Paguro

Last reported at 2018-Feb-15 23:17 UTC. Time now 2018-Feb-21 07:43 UTC.
Position N 35°54' W 005°29'.

Length 172 m; draft 6.5 m.

Type: Cargo ship. MMSI: 636017440.

Date/timePositionNaut miles runAvg speedWind from/ knotsBaromVisibWave heightAir tempDewpointWater temp
2018-Feb-15 23:17N 35°54' W 005°29'0 0.0
2018-Feb-15 22:59N 35°54' W 005°29'0 0.0
2018-Feb-15 22:30N 35°54' W 005°29'11 0.6
2018-Feb-15 05:03N 35°53' W 005°43'115.9
2018-Feb-15 04:59N 35°53' W 005°44'  
2018-Feb-06 17:36N 09°54' W 016°12'215.3
2018-Feb-06 17:28N 09°53' W 016°10'715.3
2018-Feb-06 17:00N 09°47' W 016°06'1015.1
2018-Feb-06 16:20N 09°39' W 016°00'514.9
2018-Feb-06 16:00N 09°35' W 015°57'4215.4
2018-Feb-06 13:15N 09°02' W 015°30'1215.6
2018-Feb-06 12:29N 08°54' W 015°21'915.4
2018-Feb-06 11:54N 08°48' W 015°15'1215.5
2018-Feb-06 11:07N 08°40' W 015°05'215.5
2018-Feb-06 11:00N 08°39' W 015°04'815.5
2018-Feb-06 10:30N 08°34' W 014°58'2315.8
2018-Feb-06 09:03N 08°19' W 014°40'115.4
2018-Feb-06 09:00N 08°18' W 014°40'815.9
2018-Feb-06 08:30N 08°13' W 014°34'2415.7
2018-Feb-06 07:00N 07°58' W 014°15'2015.7
2018-Feb-06 05:43N 07°47' W 013°59'415.3
2018-Feb-06 05:29N 07°45' W 013°55'715.7
2018-Feb-06 05:00N 07°41' W 013°49'815.7
2018-Feb-06 04:30N 07°38' W 013°42'815.5
2018-Feb-06 04:00N 07°34' W 013°35'  

Dump ship's entire track history